Latest Weather Observations for Coffs Harbour Airport

IDN60801

Issued at 1:13 pm EDT Thursday 20 January 2022 (issued every 10 minutes, with the page automatically refreshed every 10 minutes)

About weather observations | Map of weather stations | Latest weather observations for NSW | Other Formats
Station Details ID: 059151 Name: COFFS HARBOUR AIRPORT Lat: -30.32 Lon: 153.12 Height: 3.5 m
Data from the previous 72 hours. | See also: Recent months at Coffs Harbour Airport
Date/Time
EDT
Temp
°C
App
Temp
°C
Dew
Point
°C
Rel
Hum
%
Delta-T
°C
Wind Press
QNH
hPa
Press
MSL
hPa
Rain since
9am
mm
Dir  Spd
km/h
Gust
km/h
Spd
kts
Gust
kts
20/01:06pm 22.4 17.9 19.0 81 2.1 SSE 41 59 22 32 1021.5 1021.5 0.4
20/01:00pm 22.7 18.1 18.9 79 2.4 SSE 41 59 22 32 1021.5 1021.5 0.4
20/12:59pm 22.9 18.4 19.1 79 2.4 SSE 41 59 22 32 1021.5 1021.5 0.4
20/12:30pm 22.6 18.5 19.2 81 2.2 SSE 39 54 21 29 1021.6 1021.6 0.4
20/12:00pm 23.9 21.0 19.2 75 3.0 S 33 52 18 28 1021.7 1021.7 0.4
20/11:58am 23.8 20.8 19.1 75 3.0 S 33 52 18 28 1021.7 1021.7 0.4
20/11:30am 23.4 19.5 18.7 75 3.0 S 37 54 20 29 1021.7 1021.7 0.4
20/11:26am 23.2 20.0 19.4 79 2.4 S 35 54 19 29 1021.7 1021.7 0.4
20/11:00am 23.5 19.3 19.0 76 2.9 S 39 54 21 29 1021.4 1021.4 0.4
20/10:32am 23.0 18.5 19.0 78 2.5 S 41 59 22 32 1021.1 1021.1 0.4
20/10:30am 23.0 18.4 19.6 81 2.2 S 43 59 23 32 1021.1 1021.1 0.4
20/10:00am 22.5 18.2 19.5 83 1.9 S 41 57 22 31 1020.8 1020.8 0.4
20/09:41am 22.1 17.9 19.8 87 1.5 S 41 54 22 29 1020.7 1020.7 0.4
20/09:30am 22.0 18.6 19.9 88 1.3 S 37 54 20 29 1020.6 1020.6 0.4
20/09:05am 21.3 16.9 19.4 89 1.2 S 41 59 22 32 1020.2 1020.2 0.2
20/09:00am 21.5 17.0 20.0 91 1.0 S 43 56 23 30 1020.2 1020.2 49.0
20/08:39am 22.3 18.5 19.7 85 1.7 S 39 57 21 31 1019.7 1019.7 48.2
20/08:38am 22.5 18.7 19.7 84 1.8 S 39 57 21 31 1019.7 1019.7 48.2
20/08:30am 22.5 18.7 19.7 84 1.8 S 39 54 21 29 1019.6 1019.6 48.2
20/08:00am 22.0 17.1 19.5 86 1.6 S 44 61 24 33 1019.5 1019.5 48.2
20/07:30am 23.3 18.5 19.2 78 2.6 S 43 61 23 33 1018.9 1018.9 48.2
20/07:00am 23.4 18.6 19.3 78 2.6 S 43 61 23 33 1018.7 1018.7 48.2
20/06:42am 23.4 19.1 19.5 79 2.5 S 41 63 22 34 1018.5 1018.5 48.2
20/06:30am 23.5 19.0 19.8 80 2.4 S 43 56 23 30 1018.4 1018.4 48.2
20/06:03am 23.1 19.0 19.9 82 2.1 SSE 41 61 22 33 1018.1 1018.1 48.2
20/06:00am 23.1 - 19.7 81 2.2 - - - - - 1018.1 1018.1 48.2
20/05:39am 22.0 - 20.3 90 1.1 - - - - - 1017.7 1017.7 48.2
20/05:30am 22.2 - 20.3 89 1.2 - - - - - 1017.5 1017.5 48.2
20/05:19am 21.6 - 19.5 88 1.3 - - - - - 1017.7 1017.7 47.8
20/05:00am 22.5 - 19.7 84 1.8 - - - - - 1017.4 1017.4 47.8
20/04:30am 23.2 - 19.6 80 2.3 - - - - - 1017.1 1017.1 47.8
20/04:01am 22.9 18.5 19.3 80 2.3 SSE 41 56 22 30 1017.1 1017.1 47.8
20/04:00am 22.8 18.8 19.4 81 2.2 SSE 39 56 21 30 1017.1 1017.1 47.8
20/03:42am 21.8 17.9 18.8 83 1.9 SSE 37 52 20 28 1017.2 1017.2 47.4
20/03:30am 23.5 20.4 19.6 79 2.5 SSE 35 50 19 27 1017.1 1017.1 47.0
20/03:00am 23.4 20.1 20.0 81 2.2 SSE 37 50 20 27 1017.2 1017.2 47.0
20/02:38am 23.4 21.0 20.0 81 2.2 SSE 32 50 17 27 1017.5 1017.5 47.0
20/02:30am 23.3 20.8 20.2 83 2.0 SSE 33 50 18 27 1017.5 1017.5 47.0
20/02:00am 23.0 20.7 20.5 86 1.6 S 33 43 18 23 1017.6 1017.6 47.0
20/01:52am 22.7 - 21.0 90 1.1 - - - - - 1017.6 1017.6 47.0
20/01:36am 22.0 19.8 20.3 90 1.1 S 32 39 17 21 1017.6 1017.6 46.8
20/01:33am 22.3 - 20.8 91 1.0 - - - - - 1017.7 1017.7 46.8
20/01:30am 22.6 - 21.4 93 0.8 - - - - - 1017.7 1017.7 46.6
20/01:00am 20.6 - 19.6 94 0.6 - - - - - 1018.0 1018.0 46.4
20/12:44am 20.7 20.7 19.7 94 0.6 SW 19 28 10 15 1018.1 1018.1 45.4
20/12:30am 20.6 - 19.6 94 0.6 - - - - - 1018.3 1018.3 44.8
20/12:16am 20.6 19.9 19.6 94 0.6 SW 22 33 12 18 1018.0 1018.0 43.2
20/12:11am 20.7 - 19.7 94 0.6 - - - - - 1017.9 1017.9 42.8
20/12:00am 20.6 19.9 19.6 94 0.6 SW 22 30 12 16 1018.4 1018.4 42.6
 
Date/Time
EDT
Temp
°C
App
Temp
°C
Dew
Point
°C
Rel
Hum
%
Delta-T
°C
Wind Press
QNH
hPa
Press
MSL
hPa
Rain since
9am
mm
Dir  Spd
km/h
Gust
km/h
Spd
kts
Gust
kts
19/11:54pm 20.6 19.9 19.6 94 0.6 SW 22 30 12 16 1018.5 1018.5 42.4
19/11:30pm 20.7 - 19.7 94 0.6 - - - - - 1018.4 1018.4 41.4
19/11:19pm 20.7 - 19.7 94 0.6 - - - - - 1018.3 1018.3 41.2
19/11:12pm 20.8 - 19.8 94 0.6 - - - - - 1018.3 1018.3 41.2
19/11:06pm 20.9 - 19.9 94 0.6 - - - - - 1018.2 1018.2 41.2
19/11:00pm 20.8 - 19.8 94 0.6 - - - - - 1018.3 1018.3 41.2
19/10:41pm 20.8 20.2 19.8 94 0.6 SW 22 33 12 18 1017.9 1017.9 38.2
19/10:30pm 20.9 19.6 19.9 94 0.6 SW 26 33 14 18 1018.1 1018.1 37.0
19/10:00pm 20.9 - 19.9 94 0.6 - - - - - 1017.7 1017.7 36.2
19/09:30pm 20.9 - 19.9 94 0.6 - - - - - 1017.7 1017.7 35.8
19/09:00pm 20.6 - 19.6 94 0.6 - - - - - 1017.2 1017.2 35.2
19/08:56pm 20.6 - 19.6 94 0.6 - - - - - 1017.2 1017.2 35.0
19/08:30pm 20.5 - 19.5 94 0.6 - - - - - 1016.7 1016.7 32.4
19/08:20pm 20.5 - 19.5 94 0.6 - - - - - 1016.7 1016.7 29.6
19/08:13pm 20.5 18.7 19.5 94 0.6 SW 28 33 15 18 1016.6 1016.6 27.8
19/08:00pm 20.4 17.8 19.4 94 0.6 SW 32 39 17 21 1016.4 1016.4 27.8
19/07:30pm 20.7 18.6 19.7 94 0.6 SW 30 41 16 22 1016.2 1016.2 22.2
19/07:25pm 20.7 18.6 19.7 94 0.6 SW 30 41 16 22 1016.1 1016.1 22.0
19/07:15pm 20.8 18.7 19.8 94 0.6 SW 30 39 16 21 1016.1 1016.1 21.8
19/07:09pm 20.9 19.2 19.9 94 0.6 SW 28 35 15 19 1016.0 1016.0 20.4
19/07:07pm 20.9 19.2 19.9 94 0.6 SW 28 35 15 19 1016.0 1016.0 20.0
19/07:03pm 21.0 19.4 20.0 94 0.6 SW 28 33 15 18 1016.0 1016.0 19.0
19/07:00pm 21.1 19.5 20.1 94 0.6 SW 28 37 15 20 1015.9 1015.9 19.0
19/06:49pm 21.1 18.8 20.1 94 0.6 SSW 32 48 17 26 1015.8 1015.8 18.8
19/06:46pm 21.1 18.8 20.1 94 0.6 SSW 32 48 17 26 1015.8 1015.8 18.4
19/06:35pm 21.3 19.8 20.3 94 0.6 SSW 28 48 15 26 1015.6 1015.6 18.2
19/06:30pm 21.2 20.1 20.2 94 0.6 SSW 26 37 14 20 1015.5 1015.5 18.0
19/06:26pm 21.3 19.1 20.3 94 0.6 SSW 32 43 17 23 1015.5 1015.5 17.2
19/06:24pm 21.3 18.9 20.3 94 0.6 SSW 33 52 18 28 1015.5 1015.5 17.0
19/06:21pm 21.3 18.5 20.3 94 0.6 SSW 35 52 19 28 1015.4 1015.4 16.8
19/06:00pm 21.2 - 20.4 95 0.5 - - - - - 1015.4 1015.4 16.4
19/05:30pm 21.5 - 20.7 95 0.5 - - - - - 1015.2 1015.2 13.2
19/05:00pm 21.3 - 20.1 93 0.8 - - - - - 1014.9 1014.9 7.6
19/04:30pm 21.7 - 20.5 93 0.8 - - - - - 1014.6 1014.6 5.6
19/04:15pm 22.0 - 20.6 92 0.9 - - - - - 1014.5 1014.5 3.0
19/04:00pm 22.2 - 20.8 92 0.9 - - - - - 1014.6 1014.6 2.8
19/03:48pm 22.2 - 20.7 91 1.0 - - - - - 1014.5 1014.5 2.8
19/03:30pm 22.5 - 21.1 92 0.9 - - - - - 1014.4 1014.4 2.6
19/03:00pm 22.6 - 20.7 89 1.2 - - - - - 1014.4 1014.4 2.2
19/02:55pm 22.8 - 20.7 88 1.4 - - - - - 1014.3 1014.3 2.2
19/02:51pm 23.2 - 20.9 87 1.5 - - - - - 1014.2 1014.2 2.2
19/02:30pm 24.1 - 20.8 82 2.2 - - - - - 1014.1 1014.1 2.2
19/02:21pm 24.2 - 21.3 84 1.9 - - - - - 1014.0 1014.0 2.2
19/02:00pm 24.1 - 22.2 89 1.3 - - - - - 1014.0 1014.0 2.2
19/01:56pm 24.1 - 22.5 91 1.1 - - - - - 1014.0 1014.0 2.2
19/01:47pm 23.4 - 22.0 92 0.9 - - - - - 1014.1 1014.1 2.2
19/01:37pm 22.8 - 21.3 91 1.0 - - - - - 1014.1 1014.1 2.2
19/01:30pm 23.0 - 21.3 90 1.1 - - - - - 1014.0 1014.0 2.2
19/01:13pm 22.9 - 20.6 87 1.5 - - - - - 1014.0 1014.0 2.2
19/01:00pm 23.8 - 21.3 86 1.6 - - - - - 1013.9 1013.9 2.0
19/12:59pm 23.9 - 21.4 86 1.6 - - - - - 1013.9 1013.9 2.0
19/12:30pm 24.3 - 21.6 85 1.8 - - - - - 1014.0 1014.0 1.6
19/12:00pm 23.3 - 21.4 89 1.2 - - - - - 1014.3 1014.3 1.6
19/11:30am 23.0 - 21.5 91 1.0 - - - - - 1014.3 1014.3 1.6
19/11:14am 22.5 - 21.1 92 0.9 - - - - - 1014.4 1014.4 1.6
19/11:00am 22.3 - 20.9 92 0.9 - - - - - 1014.4 1014.4 1.6
19/10:36am 22.4 - 20.9 91 1.0 - - - - - 1014.5 1014.5 0.6
19/10:30am 22.4 - 20.7 90 1.1 - - - - - 1014.5 1014.5 0.4
19/10:00am 22.9 - 21.2 90 1.1 - - - - - 1014.2 1014.2 0.2
19/09:30am 23.6 - 21.5 88 1.4 - - - - - 1014.2 1014.2 0.0
19/09:00am 23.8 - 21.7 88 1.4 - - - - - 1014.0 1014.0 1.6
19/08:56am 23.8 - 21.7 88 1.4 - - - - - 1013.9 1013.9 1.6
19/08:30am 23.7 - 21.8 89 1.3 - - - - - 1013.7 1013.7 1.6
19/08:00am 23.4 - 21.7 90 1.1 - - - - - 1013.3 1013.3 1.6
19/07:30am 23.0 - 21.5 91 1.0 - - - - - 1012.8 1012.8 1.6
19/07:00am 22.7 - 21.3 92 0.9 - - - - - 1012.6 1012.6 1.6
19/06:30am 22.4 - 21.0 92 0.9 - - - - - 1012.3 1012.3 1.6
19/06:00am 22.3 24.8 21.1 93 0.8 SW 9 11 5 6 1011.8 1011.8 1.6
19/05:30am 22.2 24.7 21.0 93 0.8 WSW 9 11 5 6 1011.4 1011.4 1.6
19/05:00am 22.2 24.7 21.0 93 0.8 SW 9 11 5 6 1011.1 1011.1 1.6
19/04:30am 22.2 26.4 21.0 93 0.8 CALM 0 0 0 0 1010.6 1010.6 1.6
19/04:00am 22.1 26.2 20.7 92 0.9 CALM 0 0 0 0 1010.5 1010.5 1.6
19/03:30am 22.4 26.6 21.0 92 0.9 CALM 0 0 0 0 1010.5 1010.5 1.6
19/03:00am 22.5 25.5 21.3 93 0.8 SW 7 9 4 5 1010.9 1010.9 1.6
19/02:30am 22.5 26.8 21.1 92 0.9 CALM 0 0 0 0 1011.1 1011.1 1.6
19/02:00am 22.8 27.3 21.6 93 0.8 CALM 0 0 0 0 1011.4 1011.4 1.6
19/01:30am 22.7 25.5 21.5 93 0.8 WSW 9 11 5 6 1011.8 1011.8 1.6
19/01:00am 23.1 27.8 21.9 93 0.8 CALM 0 0 0 0 1011.9 1011.9 1.6
19/12:30am 22.9 26.0 21.5 92 0.9 W 7 9 4 5 1012.1 1012.1 1.6
19/12:00am 23.0 25.8 21.6 92 0.9 W 9 11 5 6 1012.1 1012.1 1.6
 
Date/Time
EDT
Temp
°C
App
Temp
°C
Dew
Point
°C
Rel
Hum
%
Delta-T
°C
Wind Press
QNH
hPa
Press
MSL
hPa
Rain since
9am
mm
Dir  Spd
km/h
Gust
km/h
Spd
kts
Gust
kts
18/11:30pm 23.1 26.4 21.9 93 0.8 W 7 9 4 5 1012.2 1012.2 1.6
18/11:00pm 23.1 27.8 21.9 93 0.8 CALM 0 9 0 5 1012.4 1012.4 1.6
18/10:30pm 23.0 25.8 21.6 92 0.9 W 9 13 5 7 1012.5 1012.5 1.6
18/10:00pm 23.2 26.0 21.6 91 1.1 W 9 13 5 7 1012.2 1012.2 0.8
18/09:30pm 23.4 25.3 21.3 88 1.4 WSW 13 17 7 9 1012.1 1012.1 0.2
18/09:00pm 24.4 28.2 20.9 81 2.3 NNW 2 7 1 4 1012.0 1012.0 0.0
18/08:30pm 25.5 27.1 20.7 75 3.1 NNE 13 19 7 10 1011.5 1011.5 0.0
18/08:00pm 25.4 26.3 20.9 76 3.0 NNE 17 22 9 12 1011.2 1011.2 0.0
18/07:30pm 25.2 25.6 20.9 77 2.8 NNE 20 28 11 15 1010.6 1010.6 0.0
18/07:00pm 25.7 26.0 20.7 74 3.3 NNE 20 28 11 15 1010.0 1010.0 0.0
18/06:30pm 26.1 26.6 20.9 73 3.4 NNE 19 26 10 14 1009.7 1009.7 0.0
18/06:00pm 26.3 26.7 20.6 71 3.7 NNE 19 26 10 14 1009.8 1009.8 0.0
18/05:30pm 26.9 27.4 21.2 71 3.8 NNE 20 30 11 16 1009.5 1009.5 0.0
18/05:00pm 26.8 27.3 21.1 71 3.8 NNE 20 30 11 16 1010.3 1010.3 0.0
18/04:30pm 26.3 25.8 20.8 71 3.6 NNE 24 32 13 17 1010.0 1010.0 0.0
18/04:00pm 26.4 24.6 21.2 73 3.4 NNE 32 39 17 21 1010.0 1010.0 0.0
18/03:30pm 26.9 25.2 21.4 72 3.7 NNE 32 46 17 25 1010.1 1010.1 0.0
18/03:00pm 26.8 24.7 21.6 73 3.5 NNE 35 48 19 26 1010.2 1010.2 0.0
18/02:30pm 27.3 25.4 22.0 73 3.6 NNE 35 48 19 26 1010.5 1010.5 0.0
18/02:00pm 27.5 25.5 21.1 68 4.2 NE 33 46 18 25 1010.6 1010.6 0.0
18/01:30pm 27.9 25.7 21.4 67 4.3 NNE 35 48 19 26 1010.8 1010.8 0.0
18/01:00pm 27.1 24.8 21.2 70 3.9 NNE 35 48 19 26 1010.7 1010.7 0.0
18/12:48pm 27.9 26.2 21.7 69 4.2 NNE 33 52 18 28 1010.6 1010.6 0.0
18/12:30pm 28.5 27.1 22.3 69 4.2 NE 33 48 18 26 1011.1 1011.1 0.0
18/12:00pm 28.1 26.5 21.9 69 4.2 NE 33 44 18 24 1011.7 1011.7 0.0
18/11:30am 28.6 27.2 21.9 67 4.5 NNE 32 41 17 22 1012.2 1012.2 0.0
18/11:00am 28.5 27.0 21.8 67 4.5 NNE 32 39 17 21 1012.1 1012.1 0.0
18/10:30am 27.5 26.6 21.5 70 4.0 NNE 28 37 15 20 1012.3 1012.3 0.0
18/10:00am 27.8 27.4 22.3 72 3.7 NE 28 33 15 18 1012.1 1012.1 0.0
18/09:30am 27.4 28.0 21.4 70 4.0 NNE 20 30 11 16 1012.1 1012.1 0.0
18/09:00am 26.2 26.6 21.0 73 3.4 N 20 30 11 16 1012.2 1012.2 0.0
18/08:30am 26.2 26.3 21.2 74 3.3 N 22 28 12 15 1012.1 1012.1 0.0
18/08:00am 26.4 27.6 21.4 74 3.3 N 17 24 9 13 1011.9 1011.9 0.0
18/07:30am 25.7 26.7 21.1 76 3.0 N 17 22 9 12 1011.7 1011.7 0.0
18/07:00am 24.8 26.1 20.9 79 2.6 N 15 22 8 12 1011.5 1011.5 0.0
18/06:30am 24.3 26.0 21.0 82 2.2 N 13 17 7 9 1011.4 1011.4 0.0
18/06:00am 24.4 25.6 20.7 80 2.4 N 15 19 8 10 1011.2 1011.2 0.0
18/05:30am 24.3 25.6 20.8 81 2.3 N 15 19 8 10 1011.0 1011.0 0.0
18/05:00am 24.3 25.9 20.8 81 2.3 N 13 17 7 9 1011.1 1011.1 0.0
18/04:30am 24.2 26.3 20.9 82 2.2 NNE 11 13 6 7 1010.9 1010.9 0.0
18/04:00am 24.0 25.6 20.7 82 2.2 N 13 17 7 9 1010.9 1010.9 0.0
18/03:30am 24.2 25.9 20.9 82 2.2 N 13 15 7 8 1011.0 1011.0 0.0
18/03:00am 24.3 25.9 20.8 81 2.3 N 13 15 7 8 1011.2 1011.2 0.0
18/02:30am 24.4 26.1 20.9 81 2.3 N 13 15 7 8 1011.4 1011.4 0.0
18/02:00am 24.3 25.9 20.8 81 2.3 N 13 15 7 8 1011.8 1011.8 0.0
18/01:30am 24.2 25.9 20.9 82 2.2 NNW 13 15 7 8 1011.9 1011.9 0.0
18/01:00am 24.2 25.8 20.7 81 2.3 NNW 13 17 7 9 1012.2 1012.2 0.0
18/12:30am 24.5 26.5 20.8 80 2.4 N 11 17 6 9 1012.4 1012.4 0.0
18/12:00am 24.7 26.1 21.0 80 2.4 N 15 20 8 11 1012.5 1012.5 0.0
 
Date/Time
EDT
Temp
°C
App
Temp
°C
Dew
Point
°C
Rel
Hum
%
Delta-T
°C
Wind Press
QNH
hPa
Press
MSL
hPa
Rain since
9am
mm
Dir  Spd
km/h
Gust
km/h
Spd
kts
Gust
kts
17/11:30pm 24.6 25.9 20.9 80 2.4 N 15 19 8 10 1012.5 1012.5 0.0
17/11:00pm 24.7 26.1 21.0 80 2.4 NNW 15 22 8 12 1012.6 1012.6 0.0
17/10:30pm 25.1 26.2 21.2 79 2.6 N 17 22 9 12 1012.6 1012.6 0.0
17/10:00pm 25.2 26.3 21.3 79 2.6 N 17 20 9 11 1012.7 1012.7 0.0
17/09:30pm 25.3 27.3 21.6 80 2.5 N 13 20 7 11 1012.3 1012.3 0.0
17/09:00pm 25.6 27.3 21.7 79 2.6 NNE 15 20 8 11 1012.0 1012.0 0.0
17/08:30pm 25.8 26.5 21.5 77 2.9 NNE 20 28 11 15 1011.6 1011.6 0.0
17/08:00pm 25.8 25.9 21.9 79 2.6 NNE 24 35 13 19 1011.2 1011.2 0.0
17/07:30pm 25.8 26.4 22.1 80 2.5 NNE 22 30 12 16 1010.7 1010.7 0.0
17/07:00pm 26.3 26.2 22.2 78 2.8 NNE 26 33 14 18 1010.4 1010.4 0.0
17/06:30pm 26.3 25.7 21.9 77 2.9 NNE 28 39 15 21 1010.0 1010.0 0.0
17/06:00pm 26.7 25.1 21.9 75 3.2 NNE 33 43 18 23 1009.5 1009.5 0.0
17/05:30pm 27.6 26.7 22.8 75 3.3 NNE 32 41 17 22 1009.6 1009.6 0.0
17/05:00pm 27.2 25.6 21.9 73 3.6 NNE 33 43 18 23 1009.6 1009.6 0.0
17/04:30pm 27.8 27.6 23.4 77 3.0 NNE 30 41 16 22 1009.7 1009.7 0.0
17/04:00pm 27.7 27.4 22.6 74 3.5 NNE 28 39 15 21 1009.6 1009.6 0.0
17/03:30pm 28.0 27.9 23.6 77 3.0 NE 30 41 16 22 1009.9 1009.9 0.0
17/03:00pm 27.9 28.1 23.5 77 3.0 NE 28 41 15 22 1010.1 1010.1 0.0
17/02:30pm 28.8 29.2 24.4 77 3.1 NE 30 41 16 22 1010.3 1010.3 0.0
17/02:00pm 28.2 29.1 23.3 75 3.4 NE 24 33 13 18 1010.3 1010.3 0.0
17/01:30pm 28.1 28.8 22.3 70 3.9 NE 22 32 12 17 1010.6 1010.6 0.0

Other formats

Comma delimited format used in spreadsheet applications
http://www.bom.gov.au/fwo/IDN60801/IDN60801.95729.axf

JavaScript Object Notation format (JSON) in row-major order
http://www.bom.gov.au/fwo/IDN60801/IDN60801.95729.json

Data quality

Most of these data are generated automatically and are frequently updated. Quality checks on data are not normally performed. It is possible for incorrect values to appear. Refer to information at About Latest Weather Observations and please check the disclaimer before using these data.